createdAt,value
2022-10-18T00:00:13.115Z,20.7
2022-10-18T00:01:56.793Z,20.7
2022-10-18T00:03:40.477Z,20.7
2022-10-18T00:05:24.185Z,20.7
2022-10-18T00:07:07.943Z,20.7
2022-10-18T00:08:51.635Z,20.7
2022-10-18T00:10:35.305Z,20.7
2022-10-18T00:12:18.988Z,20.7
2022-10-18T00:14:02.694Z,20.7
2022-10-18T00:15:46.392Z,20.6
2022-10-18T00:17:30.090Z,20.7
2022-10-18T00:19:13.836Z,20.7
2022-10-18T00:20:57.529Z,20.7
2022-10-18T00:22:41.196Z,20.7
2022-10-18T00:24:24.883Z,20.7
2022-10-18T00:26:08.581Z,20.6
2022-10-18T00:27:52.363Z,20.6
2022-10-18T00:29:36.030Z,20.6
2022-10-18T00:31:19.719Z,20.6
2022-10-18T00:33:03.400Z,20.6
2022-10-18T00:34:47.094Z,20.6
2022-10-18T00:36:30.803Z,20.6
2022-10-18T00:38:14.493Z,20.6
2022-10-18T00:39:58.229Z,20.6
2022-10-18T00:41:41.919Z,20.6
2022-10-18T00:43:25.618Z,20.6
2022-10-18T00:45:09.284Z,20.7
2022-10-18T00:46:52.995Z,20.6
2022-10-18T00:48:36.689Z,20.6
2022-10-18T00:50:20.452Z,20.6
2022-10-18T00:52:04.124Z,20.6
2022-10-18T00:53:47.809Z,20.6
2022-10-18T00:55:31.495Z,20.6
2022-10-18T00:57:15.196Z,20.6
2022-10-18T00:58:58.886Z,20.6
2022-10-18T01:00:42.648Z,20.6
2022-10-18T01:02:26.328Z,20.6
2022-10-18T01:04:10.009Z,20.6
2022-10-18T01:05:53.694Z,20.6
2022-10-18T01:07:37.380Z,20.6
2022-10-18T01:09:21.085Z,20.6
2022-10-18T01:11:04.855Z,20.6
2022-10-18T01:12:48.531Z,20.6
2022-10-18T01:14:32.216Z,20.6
2022-10-18T01:16:15.900Z,20.6
2022-10-18T01:17:59.612Z,20.6
2022-10-18T01:19:43.295Z,20.6
2022-10-18T01:21:27.063Z,20.6
2022-10-18T01:23:10.737Z,20.6
2022-10-18T01:24:54.435Z,20.6
2022-10-18T01:26:38.099Z,20.6
2022-10-18T01:28:21.812Z,20.6
2022-10-18T01:30:05.514Z,20.6
2022-10-18T01:31:49.269Z,20.6
2022-10-18T01:33:32.945Z,20.6
2022-10-18T01:35:16.626Z,20.6
2022-10-18T01:37:00.325Z,20.6
2022-10-18T01:38:44.030Z,20.6
2022-10-18T01:40:27.783Z,20.6
2022-10-18T01:42:11.469Z,20.6
2022-10-18T01:43:55.157Z,20.6
2022-10-18T01:45:38.830Z,20.6
2022-10-18T01:47:22.554Z,20.6
2022-10-18T01:49:06.230Z,20.6
2022-10-18T01:50:49.995Z,20.6
2022-10-18T01:52:33.675Z,20.6
2022-10-18T01:54:17.357Z,20.6
2022-10-18T01:56:01.042Z,20.6
2022-10-18T01:57:44.739Z,20.6
2022-10-18T01:59:28.448Z,20.6
2022-10-18T02:01:12.196Z,20.6
2022-10-18T02:02:55.877Z,20.6
2022-10-18T02:04:39.555Z,20.6
2022-10-18T02:06:23.256Z,20.6
2022-10-18T02:08:06.947Z,20.6
2022-10-18T02:09:50.648Z,20.6
2022-10-18T02:11:34.401Z,20.6
2022-10-18T02:13:18.080Z,20.6
2022-10-18T02:15:01.777Z,20.6
2022-10-18T02:16:45.464Z,20.6
2022-10-18T02:18:29.157Z,20.6
2022-10-18T02:20:12.867Z,20.6
2022-10-18T02:21:56.607Z,20.6
2022-10-18T02:23:40.288Z,20.6
2022-10-18T02:25:23.980Z,20.6
2022-10-18T02:27:07.681Z,20.6
2022-10-18T02:28:51.389Z,20.6
2022-10-18T02:30:35.129Z,20.6
2022-10-18T02:32:18.824Z,20.6
2022-10-18T02:34:02.509Z,20.6
2022-10-18T02:35:46.196Z,20.6
2022-10-18T02:37:29.897Z,20.6
2022-10-18T02:39:13.585Z,20.6
2022-10-18T02:40:57.335Z,20.6
2022-10-18T02:42:41.023Z,20.6
2022-10-18T02:44:24.714Z,20.6
2022-10-18T02:46:08.407Z,20.6
2022-10-18T02:47:52.134Z,20.6
2022-10-18T02:49:35.884Z,20.6
2022-10-18T02:51:19.545Z,20.6
2022-10-18T02:53:03.221Z,20.6
2022-10-18T02:54:46.905Z,20.6
2022-10-18T02:56:30.605Z,20.6
2022-10-18T02:58:14.309Z,20.6
2022-10-18T02:59:57.994Z,20.6
2022-10-18T03:01:41.741Z,20.6
2022-10-18T03:03:25.427Z,20.6
2022-10-18T03:05:09.129Z,20.6
2022-10-18T03:06:52.807Z,20.6
2022-10-18T03:08:36.519Z,20.6
2022-10-18T03:10:20.267Z,20.6
2022-10-18T03:12:03.950Z,20.6
2022-10-18T03:13:47.628Z,20.6
2022-10-18T03:15:31.317Z,20.6
2022-10-18T03:17:15.016Z,20.6
2022-10-18T03:18:58.726Z,20.6
2022-10-18T03:20:42.472Z,20.6
2022-10-18T03:22:26.155Z,20.6
2022-10-18T03:24:09.843Z,20.6
2022-10-18T03:25:53.533Z,20.6
2022-10-18T03:27:37.230Z,20.6
2022-10-18T03:29:20.995Z,20.6
2022-10-18T03:31:04.682Z,20.6
2022-10-18T03:32:48.361Z,20.6
2022-10-18T03:34:32.048Z,20.6
2022-10-18T03:36:15.757Z,20.6
2022-10-18T03:37:59.447Z,20.6
2022-10-18T03:39:43.198Z,20.6
2022-10-18T03:41:26.885Z,20.6
2022-10-18T03:43:10.578Z,20.5
2022-10-18T03:44:54.258Z,20.6
2022-10-18T03:46:37.969Z,20.6
2022-10-18T03:48:21.659Z,20.6
2022-10-18T03:50:05.419Z,20.6
2022-10-18T03:51:49.113Z,20.6
2022-10-18T03:53:32.775Z,20.6
2022-10-18T03:55:16.487Z,20.6
2022-10-18T03:57:00.175Z,20.5
2022-10-18T03:58:43.861Z,20.5
2022-10-18T04:00:27.617Z,20.5
2022-10-18T04:02:11.303Z,20.6
2022-10-18T04:03:54.976Z,20.5
2022-10-18T04:05:38.677Z,20.5
2022-10-18T04:07:22.376Z,20.5
2022-10-18T04:09:06.151Z,20.5
2022-10-18T04:10:49.824Z,20.5
2022-10-18T04:12:33.500Z,20.5
2022-10-18T04:14:17.200Z,20.5
2022-10-18T04:16:00.907Z,20.5
2022-10-18T04:17:44.591Z,20.5
2022-10-18T04:19:28.377Z,20.5
2022-10-18T04:21:12.023Z,20.5
2022-10-18T04:22:55.730Z,20.5
2022-10-18T04:24:39.408Z,20.5
2022-10-18T04:26:23.109Z,20.5
2022-10-18T04:28:06.874Z,20.5
2022-10-18T04:29:50.555Z,20.5
2022-10-18T04:31:34.226Z,20.5
2022-10-18T04:33:17.917Z,20.5
2022-10-18T04:35:01.643Z,20.5
2022-10-18T04:36:45.391Z,20.5
2022-10-18T04:38:29.074Z,20.5
2022-10-18T04:40:12.756Z,20.5
2022-10-18T04:41:56.435Z,20.5
2022-10-18T04:43:40.150Z,20.5
2022-10-18T04:45:23.846Z,20.5
2022-10-18T04:47:07.596Z,20.5
2022-10-18T04:48:51.279Z,20.5
2022-10-18T04:50:34.955Z,20.5
2022-10-18T04:52:18.646Z,20.5
2022-10-18T04:54:02.379Z,20.5
2022-10-18T04:55:46.051Z,20.5
2022-10-18T04:57:29.800Z,20.5
2022-10-18T04:59:13.477Z,20.5
2022-10-18T05:00:57.161Z,20.5
2022-10-18T05:02:40.860Z,20.5
2022-10-18T05:04:24.578Z,20.5
2022-10-18T05:06:08.323Z,20.5
2022-10-18T05:07:52.005Z,20.5
2022-10-18T05:09:35.688Z,20.5
2022-10-18T05:11:19.393Z,20.5
2022-10-18T05:13:03.086Z,20.5
2022-10-18T05:14:46.784Z,20.5
2022-10-18T05:16:30.530Z,20.5
2022-10-18T05:18:14.215Z,20.5
2022-10-18T05:19:57.892Z,20.5
2022-10-18T05:21:41.580Z,20.5
2022-10-18T05:23:25.317Z,20.5
2022-10-18T05:25:09.054Z,20.5
2022-10-18T05:26:52.733Z,20.5
2022-10-18T05:28:36.423Z,20.5
2022-10-18T05:30:20.111Z,20.5
2022-10-18T05:32:03.802Z,20.5
2022-10-18T05:33:47.512Z,20.5
2022-10-18T05:35:31.261Z,20.5
2022-10-18T05:37:14.958Z,20.5
2022-10-18T05:38:58.631Z,20.5
2022-10-18T05:40:42.324Z,20.5
2022-10-18T05:42:26.008Z,20.5
2022-10-18T05:44:09.717Z,20.5
2022-10-18T05:45:53.462Z,20.5
2022-10-18T05:47:37.146Z,20.5
2022-10-18T05:49:20.821Z,20.4
2022-10-18T05:51:04.531Z,20.4
2022-10-18T05:52:48.232Z,20.4
2022-10-18T05:54:31.983Z,20.4
2022-10-18T05:56:15.669Z,20.5
2022-10-18T05:57:59.356Z,20.4
2022-10-18T05:59:43.052Z,20.4
2022-10-18T06:01:26.787Z,20.5
2022-10-18T06:03:10.443Z,20.5
2022-10-18T06:04:54.195Z,20.5
2022-10-18T06:06:37.872Z,20.5
2022-10-18T06:08:21.552Z,20.5
2022-10-18T06:10:05.235Z,20.5
2022-10-18T06:11:48.952Z,20.5
2022-10-18T06:13:32.722Z,20.4
2022-10-18T06:15:16.398Z,20.5
2022-10-18T06:17:00.078Z,20.5
2022-10-18T06:18:43.760Z,20.5
2022-10-18T06:20:27.475Z,20.5
2022-10-18T06:22:11.181Z,20.5
2022-10-18T06:23:54.844Z,20.5
2022-10-18T06:25:38.605Z,20.5
2022-10-18T06:27:22.397Z,20.5
2022-10-18T06:29:06.027Z,20.5
2022-10-18T06:30:49.652Z,20.5
2022-10-18T06:32:33.364Z,20.5
2022-10-18T06:34:17.057Z,20.5
2022-10-18T06:36:00.811Z,20.5
2022-10-18T06:37:44.488Z,20.5
2022-10-18T06:39:28.176Z,20.5
2022-10-18T06:41:11.863Z,20.5
2022-10-18T06:42:55.564Z,20.5
2022-10-18T06:44:39.266Z,20.5
2022-10-18T06:46:22.950Z,20.4
2022-10-18T06:48:06.751Z,20.5
2022-10-18T06:49:50.371Z,20.5
2022-10-18T06:51:34.052Z,20.5
2022-10-18T06:53:17.753Z,20.5
2022-10-18T06:55:01.462Z,20.5
2022-10-18T06:56:45.215Z,20.5
2022-10-18T06:58:28.898Z,20.5
2022-10-18T07:00:12.624Z,20.5
2022-10-18T07:01:56.267Z,20.5
2022-10-18T07:03:39.978Z,20.5
2022-10-18T07:05:23.685Z,20.5
2022-10-18T07:07:07.427Z,20.5
2022-10-18T07:08:51.109Z,20.5
2022-10-18T07:10:34.784Z,20.5
2022-10-18T07:12:18.470Z,20.5
2022-10-18T07:14:02.173Z,20.5
2022-10-18T07:15:45.868Z,20.7
2022-10-18T07:17:29.629Z,20.8
2022-10-18T07:19:13.308Z,20.9
2022-10-18T07:20:56.989Z,21
2022-10-18T07:22:40.684Z,21
2022-10-18T07:24:24.373Z,21.1
2022-10-18T07:26:08.079Z,21.1
2022-10-18T07:27:51.834Z,21.1
2022-10-18T07:29:35.515Z,21.2
2022-10-18T07:31:19.238Z,21.2
2022-10-18T07:33:02.879Z,21.2
2022-10-18T07:34:46.571Z,21.2
2022-10-18T07:36:30.287Z,21.2
2022-10-18T07:38:14.095Z,21.2
2022-10-18T07:39:57.724Z,21.2
2022-10-18T07:41:41.399Z,21.2
2022-10-18T07:43:25.100Z,21.3
2022-10-18T07:45:08.809Z,21.3
2022-10-18T07:46:52.481Z,21.3
2022-10-18T07:48:36.242Z,21.3
2022-10-18T07:50:19.924Z,21.3
2022-10-18T07:52:03.623Z,21.4
2022-10-18T07:53:47.290Z,21.4
2022-10-18T07:55:31.005Z,21.4
2022-10-18T07:57:14.710Z,21.4
2022-10-18T07:58:58.444Z,21.4
2022-10-18T08:00:42.125Z,21.5
2022-10-18T08:02:25.831Z,21.5
2022-10-18T08:04:09.536Z,21.5
2022-10-18T08:05:53.233Z,21.5
2022-10-18T08:07:36.971Z,21.6
2022-10-18T08:09:20.651Z,21.6
2022-10-18T08:11:04.345Z,21.6
2022-10-18T08:12:48.035Z,21.6
2022-10-18T08:14:31.751Z,21.6
2022-10-18T08:16:15.521Z,21.7
2022-10-18T08:17:59.172Z,21.7
2022-10-18T08:19:42.863Z,21.8
2022-10-18T08:21:26.571Z,21.8
2022-10-18T08:23:10.265Z,21.9
2022-10-18T08:24:54.017Z,21.9
2022-10-18T08:26:37.696Z,22
2022-10-18T08:28:21.379Z,22
2022-10-18T08:30:05.088Z,22
2022-10-18T08:31:48.855Z,22
2022-10-18T08:33:32.622Z,22.1
2022-10-18T08:35:16.314Z,22.1
2022-10-18T08:37:00.035Z,22.1
2022-10-18T08:38:43.709Z,22.2
2022-10-18T08:40:27.272Z,22.2
2022-10-18T08:42:11.113Z,22.3
2022-10-18T08:43:54.892Z,22.3
2022-10-18T08:45:38.576Z,22.3
2022-10-18T08:47:22.255Z,22.4
2022-10-18T08:49:05.928Z,22.5
2022-10-18T08:50:49.626Z,22.5
2022-10-18T08:52:33.198Z,22.5
2022-10-18T08:54:16.981Z,22.5
2022-10-18T08:56:00.777Z,22.5
2022-10-18T08:57:44.462Z,22.6
2022-10-18T08:59:28.133Z,22.6
2022-10-18T09:01:11.766Z,22.7
2022-10-18T09:02:55.410Z,22.8
2022-10-18T09:04:39.159Z,22.8
2022-10-18T09:06:22.837Z,22.8
2022-10-18T09:08:06.670Z,22.9
2022-10-18T09:09:50.328Z,22.9
2022-10-18T09:11:33.942Z,22.9
2022-10-18T09:13:17.609Z,22.9
2022-10-18T09:15:01.412Z,22.9
2022-10-18T09:16:45.046Z,22.9
2022-10-18T09:18:28.742Z,22.9
2022-10-18T09:20:12.429Z,23
2022-10-18T09:21:56.128Z,23.1
2022-10-18T09:23:39.957Z,23.1
2022-10-18T09:25:23.667Z,23.2
2022-10-18T09:27:07.390Z,23.2
2022-10-18T09:28:50.926Z,23.2
2022-10-18T09:30:34.666Z,23.3
2022-10-18T09:32:18.433Z,23.3
2022-10-18T09:34:02.035Z,23.3
2022-10-18T09:35:45.775Z,23.3
2022-10-18T09:37:29.458Z,23.3
2022-10-18T09:39:13.131Z,23.3
2022-10-18T09:40:56.843Z,23.4
2022-10-18T09:42:40.575Z,23.4
2022-10-18T09:44:24.271Z,23.4
2022-10-18T09:46:07.978Z,23.4
2022-10-18T09:47:51.656Z,23.4
2022-10-18T09:49:35.350Z,23.4
2022-10-18T09:51:19.052Z,23.4
2022-10-18T09:53:02.846Z,23.4
2022-10-18T09:54:46.551Z,23.4
2022-10-18T09:56:30.226Z,23.4
2022-10-18T09:58:13.872Z,23.4
2022-10-18T09:59:57.545Z,23.4
2022-10-18T10:01:41.258Z,23.4
2022-10-18T10:03:25.013Z,23.3
2022-10-18T10:05:08.727Z,23.3
2022-10-18T10:06:52.385Z,23.3
2022-10-18T10:08:36.091Z,23.3
2022-10-18T10:10:19.758Z,23.4
2022-10-18T10:12:03.474Z,23.4
2022-10-18T10:13:47.165Z,23.4
2022-10-18T10:15:30.847Z,23.5
2022-10-18T10:17:14.628Z,23.5
2022-10-18T10:18:58.305Z,23.5
2022-10-18T10:20:41.958Z,23.5
2022-10-18T10:22:25.660Z,23.6
2022-10-18T10:24:09.419Z,23.6
2022-10-18T10:25:53.114Z,23.6
2022-10-18T10:27:36.885Z,23.6
2022-10-18T10:29:20.479Z,23.6
2022-10-18T10:31:04.157Z,23.7
2022-10-18T10:32:47.864Z,23.7
2022-10-18T10:34:31.588Z,23.6
2022-10-18T10:36:15.343Z,23.5
2022-10-18T10:37:59.031Z,23.5
2022-10-18T10:39:42.696Z,23.4
2022-10-18T10:41:26.373Z,23.4
2022-10-18T10:43:10.102Z,23.3
2022-10-18T10:44:53.847Z,23.3
2022-10-18T10:46:37.534Z,23.3
2022-10-18T10:48:21.212Z,23.3
2022-10-18T10:50:05.003Z,23.3
2022-10-18T10:51:48.654Z,23.3
2022-10-18T10:53:32.375Z,23.3
2022-10-18T10:55:16.052Z,23.3
2022-10-18T10:56:59.734Z,23.3
2022-10-18T10:58:43.427Z,23.3
2022-10-18T11:00:27.116Z,23.2
2022-10-18T11:02:10.822Z,23.2
2022-10-18T11:03:54.582Z,23.2
2022-10-18T11:05:38.272Z,23.2
2022-10-18T11:07:21.962Z,23.2
2022-10-18T11:09:05.664Z,23.2
2022-10-18T11:10:49.360Z,23.2
2022-10-18T11:12:33.134Z,23.1
2022-10-18T11:14:16.781Z,23.1
2022-10-18T11:16:00.479Z,23.1
2022-10-18T11:17:44.260Z,23.1
2022-10-18T11:19:27.851Z,23.2
2022-10-18T11:21:11.645Z,23.2
2022-10-18T11:22:55.302Z,23.2
2022-10-18T11:24:39.018Z,23.2
2022-10-18T11:26:22.662Z,23.2
2022-10-18T11:28:06.380Z,23.3
2022-10-18T11:29:50.082Z,23.3
2022-10-18T11:31:33.822Z,23.4
2022-10-18T11:33:17.534Z,23.4
2022-10-18T11:35:01.198Z,23.5
2022-10-18T11:36:44.874Z,23.6
2022-10-18T11:40:12.269Z,23.6
2022-10-18T11:41:55.970Z,23.6
2022-10-18T11:43:39.741Z,23.7
2022-10-18T11:45:23.424Z,23.7
2022-10-18T11:47:07.073Z,23.8
2022-10-18T11:48:50.788Z,23.8
2022-10-18T11:50:34.556Z,23.8
2022-10-18T11:52:18.245Z,23.8
2022-10-18T11:54:01.922Z,23.8
2022-10-18T11:55:45.598Z,23.7
2022-10-18T11:57:29.303Z,23.7
2022-10-18T11:59:13.042Z,23.8
2022-10-18T12:00:56.802Z,23.8
2022-10-18T12:02:40.445Z,23.8
2022-10-18T12:04:24.180Z,23.8
2022-10-18T12:06:07.819Z,23.8
2022-10-18T12:07:51.498Z,23.8
2022-10-18T12:09:35.218Z,23.8
2022-10-18T12:11:18.966Z,23.7
2022-10-18T12:13:02.650Z,23.7
2022-10-18T12:14:46.326Z,23.8
2022-10-18T12:16:30.012Z,23.8
2022-10-18T12:18:13.712Z,23.8
2022-10-18T12:19:57.403Z,23.8
2022-10-18T12:21:41.172Z,23.8
2022-10-18T12:23:24.872Z,23.8
2022-10-18T12:25:08.541Z,23.9
2022-10-18T12:26:52.217Z,23.9
2022-10-18T12:28:35.905Z,23.9
2022-10-18T12:30:19.605Z,23.9
2022-10-18T12:32:03.305Z,23.9
2022-10-18T12:33:47.086Z,23.8
2022-10-18T12:35:30.759Z,23.8
2022-10-18T12:37:14.426Z,23.7
2022-10-18T12:38:58.108Z,23.6
2022-10-18T12:40:41.818Z,23.6
2022-10-18T12:42:25.585Z,23.6
2022-10-18T12:44:09.264Z,23.5
2022-10-18T12:45:52.942Z,23.5
2022-10-18T12:47:36.640Z,23.5
2022-10-18T12:49:20.340Z,23.5
2022-10-18T12:51:04.066Z,23.5
2022-10-18T12:52:47.786Z,23.5
2022-10-18T12:54:31.588Z,23.6
2022-10-18T12:56:15.154Z,23.6
2022-10-18T12:57:58.861Z,23.6
2022-10-18T12:59:42.558Z,23.6
2022-10-18T13:01:26.245Z,23.6
2022-10-18T13:03:10.002Z,23.6
2022-10-18T13:04:53.670Z,23.6
2022-10-18T13:06:37.355Z,23.5
2022-10-18T13:08:21.055Z,23.5
2022-10-18T13:10:04.758Z,23.4
2022-10-18T13:11:48.434Z,23.4
2022-10-18T13:13:32.200Z,23.3
2022-10-18T13:15:15.880Z,23.3
2022-10-18T13:16:59.563Z,23.2
2022-10-18T13:18:43.245Z,23.2
2022-10-18T13:20:26.963Z,23.2
2022-10-18T13:22:10.729Z,23.2
2022-10-18T13:23:54.403Z,23.2
2022-10-18T13:25:38.085Z,23.2
2022-10-18T13:27:21.760Z,23.3
2022-10-18T13:29:05.635Z,23.3
2022-10-18T13:30:49.161Z,23.3
2022-10-18T13:32:32.904Z,23.3
2022-10-18T13:34:16.633Z,23.3
2022-10-18T13:36:00.285Z,23.3
2022-10-18T13:37:43.979Z,23.3
2022-10-18T13:39:27.662Z,23.3
2022-10-18T13:41:11.495Z,23.4
2022-10-18T13:42:55.073Z,23.4
2022-10-18T13:44:38.809Z,23.4
2022-10-18T13:46:22.495Z,23.3
2022-10-18T13:48:06.177Z,23.3
2022-10-18T13:49:49.916Z,23.2
2022-10-18T13:51:33.586Z,23.2
2022-10-18T13:53:17.345Z,23.2
2022-10-18T13:55:01.016Z,23.2
2022-10-18T13:56:44.698Z,23.1
2022-10-18T13:58:28.385Z,23.1
2022-10-18T14:00:12.100Z,23.1
2022-10-18T14:01:55.812Z,23
2022-10-18T14:03:39.582Z,23
2022-10-18T14:05:23.222Z,23
2022-10-18T14:07:06.917Z,23
2022-10-18T14:08:50.603Z,23
2022-10-18T14:10:34.305Z,23
2022-10-18T14:12:17.995Z,23
2022-10-18T14:14:01.741Z,23
2022-10-18T14:15:45.442Z,23
2022-10-18T14:17:29.239Z,23
2022-10-18T14:19:12.878Z,23
2022-10-18T14:20:56.522Z,23
2022-10-18T14:22:40.266Z,23
2022-10-18T14:24:23.949Z,23
2022-10-18T14:26:07.628Z,23
2022-10-18T14:27:51.343Z,23
2022-10-18T14:29:35.043Z,22.9
2022-10-18T14:31:18.798Z,22.9
2022-10-18T14:33:02.515Z,23
2022-10-18T14:34:46.157Z,23
2022-10-18T14:36:29.843Z,23
2022-10-18T14:38:13.562Z,23
2022-10-18T14:39:57.244Z,22.9
2022-10-18T14:41:40.998Z,22.9
2022-10-18T14:43:24.685Z,22.9
2022-10-18T14:45:08.358Z,22.9
2022-10-18T14:46:52.044Z,22.9
2022-10-18T14:48:35.757Z,22.9
2022-10-18T14:50:19.525Z,22.9
2022-10-18T14:52:03.216Z,22.9
2022-10-18T14:53:46.885Z,22.9
2022-10-18T14:55:30.563Z,22.9
2022-10-18T14:57:14.278Z,22.9
2022-10-18T14:58:57.956Z,22.9
2022-10-18T15:00:41.744Z,22.9
2022-10-18T15:02:25.452Z,22.8
2022-10-18T15:04:09.095Z,22.8
2022-10-18T15:05:52.766Z,22.8
2022-10-18T15:07:36.485Z,22.8
2022-10-18T15:09:20.184Z,22.8
2022-10-18T15:11:03.869Z,22.8
2022-10-18T15:12:47.652Z,22.8
2022-10-18T15:14:31.296Z,22.8
2022-10-18T15:16:14.978Z,22.8
2022-10-18T15:17:58.717Z,22.8
2022-10-18T15:19:42.468Z,22.7
2022-10-18T15:21:26.166Z,22.7
2022-10-18T15:23:09.813Z,22.7
2022-10-18T15:24:53.498Z,22.7
2022-10-18T15:26:37.212Z,22.6
2022-10-18T15:28:20.911Z,22.6
2022-10-18T15:30:04.670Z,22.6
2022-10-18T15:31:48.361Z,22.5
2022-10-18T15:33:32.029Z,22.5
2022-10-18T15:35:15.753Z,22.5
2022-10-18T15:36:59.444Z,22.5
2022-10-18T15:38:43.181Z,22.5
2022-10-18T15:40:26.881Z,22.4
2022-10-18T15:42:10.557Z,22.4
2022-10-18T15:43:54.248Z,22.4
2022-10-18T15:45:38.044Z,22.4
2022-10-18T15:47:21.759Z,22.4
2022-10-18T15:49:05.414Z,22.4
2022-10-18T15:50:49.071Z,22.4
2022-10-18T15:52:32.746Z,22.3
2022-10-18T15:54:16.459Z,22.3
2022-10-18T15:56:00.158Z,22.3
2022-10-18T15:57:43.912Z,22.3
2022-10-18T15:59:27.593Z,22.3
2022-10-18T16:01:11.276Z,22.3
2022-10-18T16:02:54.982Z,22.3
2022-10-18T16:04:38.680Z,22.3
2022-10-18T16:06:22.379Z,22.2
2022-10-18T16:08:06.123Z,22.2
2022-10-18T16:09:49.797Z,22.2
2022-10-18T16:11:33.491Z,22.2
2022-10-18T16:13:17.213Z,22.2
2022-10-18T16:15:00.898Z,22.2
2022-10-18T16:16:44.639Z,22.1
2022-10-18T16:18:28.334Z,22.1
2022-10-18T16:20:12.011Z,22.1
2022-10-18T16:21:55.794Z,22.1
2022-10-18T16:23:39.407Z,22.1
2022-10-18T16:25:23.104Z,22.1
2022-10-18T16:27:06.849Z,22.1
2022-10-18T16:28:50.530Z,22.1
2022-10-18T16:30:34.226Z,22.1
2022-10-18T16:32:17.911Z,22.1
2022-10-18T16:34:01.626Z,22.1
2022-10-18T16:35:45.367Z,22.1
2022-10-18T16:37:29.050Z,22.1
2022-10-18T16:39:12.737Z,22.1
2022-10-18T16:40:56.421Z,22.2
2022-10-18T16:42:40.140Z,22.2
2022-10-18T16:44:23.907Z,22.2
2022-10-18T16:46:07.598Z,22.2
2022-10-18T16:47:51.253Z,22.2
2022-10-18T16:49:34.953Z,22.2
2022-10-18T16:51:18.655Z,22.2
2022-10-18T16:53:02.352Z,22.2
2022-10-18T16:54:46.096Z,22.2
2022-10-18T16:56:29.781Z,22.2
2022-10-18T16:58:13.591Z,22.2
2022-10-18T16:59:57.158Z,22.2
2022-10-18T17:01:40.872Z,22.2
2022-10-18T17:03:24.594Z,22.2
2022-10-18T17:05:08.358Z,22.3
2022-10-18T17:06:51.983Z,22.3
2022-10-18T17:08:35.679Z,22.3
2022-10-18T17:10:19.396Z,22.2
2022-10-18T17:12:03.202Z,22.3
2022-10-18T17:13:46.864Z,22.3
2022-10-18T17:15:30.510Z,22.2
2022-10-18T17:17:14.216Z,22.2
2022-10-18T17:18:57.889Z,22.2
2022-10-18T17:20:41.609Z,22.2
2022-10-18T17:22:25.356Z,22.2
2022-10-18T17:24:09.033Z,22.2
2022-10-18T17:25:52.724Z,22.2
2022-10-18T17:27:36.420Z,22.2
2022-10-18T17:29:20.137Z,22.2
2022-10-18T17:31:03.878Z,22.2
2022-10-18T17:32:47.569Z,22.2
2022-10-18T17:34:31.282Z,22.3
2022-10-18T17:36:14.931Z,22.3
2022-10-18T17:37:58.721Z,22.3
2022-10-18T17:39:42.403Z,22.2
2022-10-18T17:41:26.149Z,22.2
2022-10-18T17:43:09.766Z,22.3
2022-10-18T17:44:53.464Z,22.3
2022-10-18T17:46:37.169Z,22.2
2022-10-18T17:48:20.843Z,22.3
2022-10-18T17:50:04.607Z,22.2
2022-10-18T17:51:48.444Z,22.3
2022-10-18T17:53:31.976Z,22.2
2022-10-18T17:55:15.712Z,22.2
2022-10-18T17:56:59.370Z,22.2
2022-10-18T17:58:43.067Z,22.3
2022-10-18T18:00:26.811Z,22.2
2022-10-18T18:02:10.493Z,22.2
2022-10-18T18:03:54.179Z,22.2
2022-10-18T18:05:37.878Z,22.2
2022-10-18T18:07:21.579Z,22.2
2022-10-18T18:09:05.279Z,22.2
2022-10-18T18:10:49.028Z,22.2
2022-10-18T18:12:32.700Z,22.2
2022-10-18T18:14:16.385Z,22.2
2022-10-18T18:16:00.094Z,22.2
2022-10-18T18:17:43.802Z,22.2
2022-10-18T18:19:27.546Z,22.2
2022-10-18T18:21:11.228Z,22.2
2022-10-18T18:22:54.930Z,22.2
2022-10-18T18:24:38.597Z,22.2
2022-10-18T18:26:22.333Z,22.2
2022-10-18T18:28:06.069Z,22.2
2022-10-18T18:29:49.689Z,22.2
2022-10-18T18:31:33.430Z,22.2
2022-10-18T18:33:17.110Z,22.2
2022-10-18T18:35:00.810Z,22.2
2022-10-18T18:36:44.496Z,22.2
2022-10-18T18:38:28.222Z,22.2
2022-10-18T18:40:11.950Z,22.2
2022-10-18T18:41:55.675Z,22.2
2022-10-18T18:43:39.310Z,22.2
2022-10-18T18:45:23.014Z,22.2
2022-10-18T18:47:06.736Z,22.2
2022-10-18T18:48:50.530Z,22.2
2022-10-18T18:50:34.154Z,22.2
2022-10-18T18:52:17.835Z,22.2
2022-10-18T18:54:01.542Z,22.2
2022-10-18T18:55:45.234Z,22.2
2022-10-18T18:57:28.917Z,22.1
2022-10-18T18:59:12.708Z,22.1
2022-10-18T19:00:56.369Z,22.1
2022-10-18T19:02:40.072Z,22.1
2022-10-18T19:04:23.752Z,22.1
2022-10-18T19:06:07.478Z,22.1
2022-10-18T19:07:51.145Z,22.1
2022-10-18T19:09:34.912Z,22
2022-10-18T19:11:18.615Z,22
2022-10-18T19:13:02.249Z,22
2022-10-18T19:14:45.960Z,22
2022-10-18T19:16:29.666Z,22
2022-10-18T19:18:13.409Z,22
2022-10-18T19:19:57.093Z,22
2022-10-18T19:21:40.769Z,22
2022-10-18T19:23:24.482Z,22
2022-10-18T19:25:08.175Z,21.9
2022-10-18T19:26:51.875Z,21.9
2022-10-18T19:28:35.678Z,21.9
2022-10-18T19:30:19.305Z,21.9
2022-10-18T19:32:03.031Z,21.9
2022-10-18T19:33:46.682Z,21.9
2022-10-18T19:35:30.458Z,21.9
2022-10-18T19:37:14.141Z,21.9
2022-10-18T19:38:57.823Z,21.9
2022-10-18T19:40:41.507Z,21.9
2022-10-18T19:42:25.227Z,21.9
2022-10-18T19:44:08.910Z,21.9
2022-10-18T19:45:52.731Z,21.9
2022-10-18T19:47:36.424Z,21.9
2022-10-18T19:49:20.081Z,21.9
2022-10-18T19:51:03.720Z,21.9
2022-10-18T19:52:47.498Z,21.8
2022-10-18T19:54:31.257Z,21.8
2022-10-18T19:56:14.988Z,21.8
2022-10-18T19:57:58.550Z,21.8
2022-10-18T19:59:42.310Z,21.8
2022-10-18T20:01:25.942Z,21.8
2022-10-18T20:03:09.790Z,21.8
2022-10-18T20:04:53.429Z,21.8
2022-10-18T20:06:37.174Z,21.8
2022-10-18T20:08:20.779Z,21.8
2022-10-18T20:10:04.476Z,21.8
2022-10-18T20:11:48.170Z,21.8
2022-10-18T20:13:31.949Z,21.7
2022-10-18T20:15:15.623Z,21.7
2022-10-18T20:16:59.274Z,21.7
2022-10-18T20:18:42.961Z,21.7
2022-10-18T20:20:26.647Z,21.7
2022-10-18T20:22:10.383Z,21.7
2022-10-18T20:23:54.171Z,21.7
2022-10-18T20:25:37.835Z,21.7
2022-10-18T20:27:21.631Z,21.7
2022-10-18T20:29:05.212Z,21.7
2022-10-18T20:30:48.905Z,21.7
2022-10-18T20:32:32.568Z,21.7
2022-10-18T20:34:16.339Z,21.7
2022-10-18T20:36:00.010Z,21.7
2022-10-18T20:37:43.759Z,21.7
2022-10-18T20:39:27.472Z,21.7
2022-10-18T20:41:11.074Z,21.7
2022-10-18T20:42:54.875Z,21.7
2022-10-18T20:44:38.579Z,21.7
2022-10-18T20:46:22.225Z,21.7
2022-10-18T20:48:05.935Z,21.6
2022-10-18T20:49:49.586Z,21.6
2022-10-18T20:51:33.282Z,21.6
2022-10-18T20:53:16.979Z,21.6
2022-10-18T20:55:00.740Z,21.6
2022-10-18T20:56:44.420Z,21.6
2022-10-18T20:58:28.152Z,21.6
2022-10-18T21:00:11.823Z,21.6
2022-10-18T21:01:55.536Z,21.6
2022-10-18T21:03:39.288Z,21.6
2022-10-18T21:05:22.943Z,21.6
2022-10-18T21:07:06.648Z,21.6
2022-10-18T21:08:50.306Z,21.6
2022-10-18T21:10:34.046Z,21.6
2022-10-18T21:12:17.723Z,21.6
2022-10-18T21:14:01.462Z,21.5
2022-10-18T21:15:45.141Z,21.5
2022-10-18T21:17:28.832Z,21.5
2022-10-18T21:19:12.531Z,21.5
2022-10-18T21:20:56.369Z,21.5
2022-10-18T21:22:40.001Z,21.5
2022-10-18T21:24:23.675Z,21.5
2022-10-18T21:26:07.351Z,21.5
2022-10-18T21:27:51.058Z,21.5
2022-10-18T21:29:34.780Z,21.5
2022-10-18T21:31:18.495Z,21.5
2022-10-18T21:33:02.202Z,21.5
2022-10-18T21:34:45.892Z,21.5
2022-10-18T21:36:29.572Z,21.5
2022-10-18T21:38:13.276Z,21.5
2022-10-18T21:39:57.046Z,21.5
2022-10-18T21:41:40.732Z,21.5
2022-10-18T21:43:24.398Z,21.5
2022-10-18T21:45:08.082Z,21.5
2022-10-18T21:46:51.796Z,21.5
2022-10-18T21:48:35.488Z,21.4
2022-10-18T21:50:19.251Z,21.4
2022-10-18T21:52:02.925Z,21.4
2022-10-18T21:53:46.621Z,21.4
2022-10-18T21:55:30.296Z,21.4
2022-10-18T21:57:14.004Z,21.4
2022-10-18T21:58:57.698Z,21.4
2022-10-18T22:00:41.458Z,21.4
2022-10-18T22:02:25.129Z,21.4
2022-10-18T22:04:08.811Z,21.4
2022-10-18T22:05:52.518Z,21.4
2022-10-18T22:07:36.223Z,21.4
2022-10-18T22:09:19.969Z,21.4
2022-10-18T22:11:03.650Z,21.4
2022-10-18T22:12:47.352Z,21.4
2022-10-18T22:14:31.033Z,21.4
2022-10-18T22:16:14.723Z,21.4
2022-10-18T22:17:58.495Z,21.4
2022-10-18T22:19:42.176Z,21.4
2022-10-18T22:21:25.853Z,21.4
2022-10-18T22:23:09.550Z,21.4
2022-10-18T22:24:53.266Z,21.4
2022-10-18T22:26:36.960Z,21.4
2022-10-18T22:28:20.706Z,21.4
2022-10-18T22:30:04.406Z,21.4
2022-10-18T22:31:48.114Z,21.4
2022-10-18T22:33:31.766Z,21.4
2022-10-18T22:35:15.602Z,21.4
2022-10-18T22:36:59.283Z,21.4
2022-10-18T22:38:42.931Z,21.4
2022-10-18T22:40:26.582Z,21.4
2022-10-18T22:42:10.389Z,21.4
2022-10-18T22:43:54.007Z,21.4
2022-10-18T22:45:37.757Z,21.4
2022-10-18T22:47:21.455Z,21.4
2022-10-18T22:49:05.158Z,21.3
2022-10-18T22:50:48.812Z,21.3
2022-10-18T22:52:32.501Z,21.3
2022-10-18T22:54:16.209Z,21.3
2022-10-18T22:55:59.950Z,21.3
2022-10-18T22:57:43.631Z,21.3
2022-10-18T22:59:27.324Z,21.3
2022-10-18T23:01:11.031Z,21.3
2022-10-18T23:02:54.725Z,21.3
2022-10-18T23:04:38.492Z,21.2